createdAt,value
2018-06-08T13:13:26.718Z,5.55
2018-06-08T13:15:55.919Z,3.95
2018-06-08T13:18:25.161Z,7.03
2018-06-08T13:20:54.378Z,3.90
2018-06-08T13:23:23.602Z,3.80
2018-06-08T13:25:52.897Z,3.80
2018-06-08T13:28:22.120Z,3.60
2018-06-08T13:30:51.381Z,3.67
2018-06-08T13:33:20.611Z,3.70
2018-06-08T13:35:49.838Z,3.67
2018-06-08T13:38:19.065Z,3.30
2018-06-08T13:40:48.313Z,4.40
2018-06-08T13:43:17.519Z,3.40
2018-06-08T13:45:46.768Z,4.40
2018-06-08T13:48:15.979Z,5.40
2018-06-08T13:50:45.297Z,3.87
2018-06-08T13:53:14.528Z,5.58
2018-06-08T13:55:43.795Z,3.87
2018-06-08T13:58:13.010Z,3.83
2018-06-08T14:00:43.559Z,4.62
2018-06-08T14:03:12.809Z,3.67
2018-06-08T14:05:42.023Z,4.63
2018-06-08T14:08:11.225Z,3.90
2018-06-08T14:10:40.455Z,6.17
2018-06-08T14:13:09.659Z,4.75
2018-06-08T14:15:39.062Z,5.35
2018-06-08T14:18:08.254Z,3.95
2018-06-08T14:20:37.464Z,3.73
2018-06-08T14:23:06.693Z,6.47
2018-06-08T14:25:35.894Z,3.50
2018-06-08T14:28:05.089Z,4.67
2018-06-08T14:30:34.307Z,9.55
2018-06-08T14:33:03.554Z,6.33
2018-06-08T14:35:32.751Z,7.72
2018-06-08T14:38:01.963Z,6.10
2018-06-08T14:40:31.170Z,5.77
2018-06-08T14:43:00.386Z,7.90
2018-06-08T14:45:29.611Z,6.53
2018-06-08T14:47:58.913Z,7.65
2018-06-08T14:50:28.126Z,10.78
2018-06-08T14:52:57.342Z,10.77
2018-06-08T14:55:26.800Z,8.03
2018-06-08T14:57:56.106Z,14.55
2018-06-08T15:00:25.437Z,7.22
2018-06-08T15:02:54.740Z,7.62
2018-06-08T15:05:23.946Z,5.80
2018-06-08T15:07:53.167Z,7.47
2018-06-08T15:10:22.546Z,9.30
2018-06-08T15:12:51.791Z,7.15
2018-06-08T15:15:20.857Z,6.83
2018-06-08T15:17:50.139Z,8.55
2018-06-08T15:20:19.369Z,4.98
2018-06-08T15:22:48.587Z,5.55
2018-06-08T15:25:18.466Z,4.33
2018-06-08T15:27:47.681Z,4.37
2018-06-08T15:30:16.895Z,3.70
2018-06-08T15:32:46.130Z,3.87
2018-06-08T15:35:15.557Z,3.75
2018-06-08T15:37:44.754Z,4.37
2018-06-08T15:40:13.954Z,5.13
2018-06-08T15:42:43.162Z,5.80
2018-06-08T15:45:12.382Z,4.35
2018-06-08T15:47:42.919Z,3.12
2018-06-08T15:50:12.129Z,4.08
2018-06-08T15:52:41.346Z,2.37
2018-06-08T15:55:10.564Z,4.30
2018-06-08T15:57:39.839Z,4.28
2018-06-08T16:00:09.038Z,3.05
2018-06-08T16:02:38.266Z,3.62
2018-06-08T16:05:07.466Z,5.83
2018-06-08T16:07:36.732Z,5.30
2018-06-08T16:10:05.974Z,3.70
2018-06-08T16:12:35.302Z,3.67
2018-06-08T16:15:04.569Z,4.58
2018-06-08T16:17:33.809Z,4.60
2018-06-08T16:20:03.054Z,5.90
2018-06-08T16:22:32.574Z,4.20
2018-06-08T16:25:01.736Z,3.50
2018-06-08T16:27:31.040Z,5.57
2018-06-08T16:30:00.294Z,3.12
2018-06-08T16:32:29.471Z,3.70
2018-06-08T16:34:58.762Z,3.42
2018-06-08T16:37:27.961Z,3.98
2018-06-08T16:39:57.170Z,4.13
2018-06-08T16:42:26.635Z,5.87
2018-06-08T16:44:56.016Z,5.40
2018-06-08T16:47:25.267Z,3.92
2018-06-08T16:49:54.506Z,4.15
2018-06-08T16:52:23.723Z,4.33
2018-06-08T16:54:53.005Z,7.10
2018-06-08T16:57:22.216Z,9.35
2018-06-08T16:59:51.413Z,4.53
2018-06-08T17:02:20.688Z,6.67
2018-06-08T17:04:49.929Z,4.73
2018-06-08T17:07:19.167Z,5.07
2018-06-08T17:09:48.133Z,4.53
2018-06-08T17:12:17.428Z,2.92
2018-06-08T17:14:46.774Z,4.17
2018-06-08T17:17:15.970Z,4.17
2018-06-08T17:19:45.208Z,4.17
2018-06-08T17:22:15.402Z,4.28
2018-06-08T17:24:44.602Z,3.17
2018-06-08T17:27:13.803Z,4.90
2018-06-08T17:29:43.021Z,3.37
2018-06-08T17:32:12.213Z,3.72
2018-06-08T17:34:41.421Z,4.25
2018-06-08T17:37:10.637Z,5.83
2018-06-08T17:39:39.835Z,6.63
2018-06-08T17:42:09.054Z,3.13
2018-06-08T17:44:38.271Z,3.30
2018-06-08T17:47:07.506Z,3.52
2018-06-08T17:49:36.787Z,5.30
2018-06-08T17:52:06.012Z,5.50
2018-06-08T17:54:35.239Z,5.80
2018-06-08T17:57:04.497Z,4.35
2018-06-08T17:59:33.691Z,7.15
2018-06-08T18:02:02.971Z,3.35
2018-06-08T18:04:32.233Z,3.80
2018-06-08T18:07:01.445Z,3.97
2018-06-08T18:09:30.419Z,2.90
2018-06-08T18:11:59.663Z,4.47
2018-06-08T18:14:28.866Z,3.40
2018-06-08T18:16:58.087Z,3.13
2018-06-08T18:19:27.332Z,3.37
2018-06-08T18:21:57.778Z,4.35
2018-06-08T18:24:27.018Z,3.02
2018-06-08T18:26:56.318Z,6.50
2018-06-08T18:29:25.524Z,6.40
2018-06-08T18:31:54.752Z,4.15
2018-06-08T18:34:24.022Z,4.12
2018-06-08T18:36:53.243Z,4.17
2018-06-08T18:39:22.449Z,4.20
2018-06-08T18:41:51.686Z,5.27
2018-06-08T18:44:20.914Z,6.70
2018-06-08T18:46:50.156Z,3.92
2018-06-08T18:49:19.367Z,7.33
2018-06-08T18:51:48.644Z,5.93
2018-06-08T18:54:17.940Z,4.03
2018-06-08T18:56:46.990Z,5.50
2018-06-08T18:59:16.268Z,5.53
2018-06-08T19:01:45.483Z,5.43
2018-06-08T19:04:14.782Z,3.57
2018-06-08T19:06:44.000Z,6.83
2018-06-08T19:09:13.230Z,6.87
2018-06-08T19:11:42.452Z,7.40
2018-06-08T19:14:11.684Z,6.43
2018-06-08T19:16:40.896Z,4.57
2018-06-08T19:19:10.109Z,5.17
2018-06-08T19:21:39.325Z,4.25
2018-06-08T19:24:08.550Z,5.97
2018-06-08T19:26:37.776Z,4.40
2018-06-08T19:29:07.103Z,6.07
2018-06-08T19:31:36.307Z,4.03
2018-06-08T19:34:05.546Z,5.43
2018-06-08T19:36:34.747Z,4.97
2018-06-08T19:39:06.010Z,4.72
2018-06-08T19:41:35.235Z,5.03
2018-06-08T19:44:04.454Z,5.20
2018-06-08T19:46:33.758Z,4.63
2018-06-08T19:49:02.985Z,3.70
2018-06-08T19:51:32.242Z,3.77
2018-06-08T19:54:01.444Z,4.47
2018-06-08T19:56:30.646Z,5.27
2018-06-08T19:58:59.849Z,5.23
2018-06-08T20:01:29.054Z,6.53
2018-06-08T20:03:58.278Z,12.63
2018-06-08T20:06:27.486Z,5.83
2018-06-08T20:08:56.768Z,4.73
2018-06-08T20:11:26.008Z,5.33
2018-06-08T20:13:55.236Z,7.77
2018-06-08T20:16:24.443Z,4.77
2018-06-08T20:18:53.969Z,6.37
2018-06-08T20:21:23.195Z,5.57
2018-06-08T20:23:52.466Z,5.53
2018-06-08T20:26:21.690Z,5.57
2018-06-08T20:28:50.927Z,5.43
2018-06-08T20:31:20.143Z,5.70
2018-06-08T20:33:49.373Z,6.83
2018-06-08T20:36:18.624Z,6.53
2018-06-08T20:38:47.828Z,5.07
2018-06-08T20:41:17.120Z,5.63
2018-06-08T20:43:46.691Z,5.70
2018-06-08T20:46:15.891Z,7.40
2018-06-08T20:48:45.135Z,8.17
2018-06-08T20:51:14.351Z,7.43
2018-06-08T20:53:43.851Z,8.48
2018-06-08T20:56:13.137Z,6.57
2018-06-08T20:58:42.359Z,8.30
2018-06-08T21:01:11.591Z,6.80
2018-06-08T21:03:40.810Z,6.07
2018-06-08T21:06:10.055Z,8.43
2018-06-08T21:08:39.347Z,5.93
2018-06-08T21:11:08.572Z,6.67
2018-06-08T21:13:37.778Z,6.93
2018-06-08T21:16:07.001Z,8.67
2018-06-08T21:18:36.227Z,5.70
2018-06-08T21:21:05.482Z,8.63
2018-06-08T21:23:34.719Z,7.47
2018-06-08T21:26:03.811Z,8.60
2018-06-08T21:28:33.076Z,8.10
2018-06-08T21:31:02.310Z,8.43
2018-06-08T21:33:31.543Z,8.40
2018-06-08T21:36:00.763Z,6.10
2018-06-08T21:38:29.988Z,8.30
2018-06-08T21:40:59.198Z,6.33
2018-06-08T21:43:28.417Z,10.20
2018-06-08T21:45:57.647Z,9.40
2018-06-08T21:48:26.882Z,6.57
2018-06-08T21:50:56.111Z,7.20
2018-06-08T21:53:25.335Z,7.90
2018-06-08T21:55:54.576Z,7.10
2018-06-08T21:58:23.824Z,10.60
2018-06-08T22:00:53.031Z,9.73
2018-06-08T22:03:22.318Z,8.30
2018-06-08T22:05:51.811Z,7.07
2018-06-08T22:08:21.032Z,10.70
2018-06-08T22:10:50.262Z,8.70
2018-06-08T22:13:19.480Z,6.80
2018-06-08T22:15:49.091Z,10.10
2018-06-08T22:18:18.311Z,9.67
2018-06-08T22:20:47.533Z,8.60
2018-06-08T22:23:16.866Z,7.63
2018-06-08T22:25:46.158Z,9.73
2018-06-08T22:28:15.374Z,7.30
2018-06-08T22:30:44.737Z,7.13
2018-06-08T22:33:13.963Z,7.33
2018-06-08T22:35:43.186Z,6.10
2018-06-08T22:38:12.419Z,6.37
2018-06-08T22:40:41.620Z,9.17
2018-06-08T22:43:10.852Z,7.12
2018-06-08T22:45:40.042Z,8.17
2018-06-08T22:48:09.258Z,7.73
2018-06-08T22:50:38.471Z,7.33
2018-06-08T22:53:07.780Z,6.70
2018-06-08T22:55:36.982Z,9.27
2018-06-08T22:58:06.218Z,7.50
2018-06-08T23:00:35.415Z,9.00
2018-06-08T23:03:04.622Z,7.93
2018-06-08T23:05:33.851Z,7.97
2018-06-08T23:08:03.053Z,9.87
2018-06-08T23:10:32.322Z,8.83
2018-06-08T23:13:01.533Z,6.87
2018-06-08T23:15:30.738Z,7.57
2018-06-08T23:17:59.952Z,9.00
2018-06-08T23:20:29.146Z,6.87
2018-06-08T23:22:58.382Z,9.67
2018-06-08T23:25:27.566Z,9.33
2018-06-08T23:27:56.794Z,7.97
2018-06-08T23:30:25.994Z,5.80
2018-06-08T23:32:55.228Z,7.77
2018-06-08T23:35:24.427Z,8.47
2018-06-08T23:37:53.629Z,7.67
2018-06-08T23:40:22.826Z,11.83
2018-06-08T23:42:52.060Z,7.60
2018-06-08T23:45:21.288Z,8.60
2018-06-08T23:47:50.562Z,7.53
2018-06-08T23:50:19.995Z,10.28
2018-06-08T23:52:49.225Z,6.80
2018-06-08T23:55:18.447Z,8.30
2018-06-08T23:57:47.678Z,10.57
